createdAt,value
2022-11-10T00:00:49.211Z,95637.09
2022-11-10T00:03:35.983Z,95660.38
2022-11-10T00:06:21.621Z,95653.25
2022-11-10T00:09:07.722Z,95632.53
2022-11-10T00:11:53.502Z,95661.25
2022-11-10T00:14:58.075Z,95656.81
2022-11-10T00:17:43.540Z,95661.09
2022-11-10T00:20:29.079Z,95651.13
2022-11-10T00:23:14.870Z,95642.97
2022-11-10T00:26:00.284Z,95666.31
2022-11-10T00:28:46.509Z,95657.56
2022-11-10T00:31:31.732Z,95656.97
2022-11-10T00:34:17.496Z,95657.78
2022-11-10T00:37:03.602Z,95659.06
2022-11-10T00:39:49.140Z,95640.69
2022-11-10T00:42:34.697Z,95643.94
2022-11-10T00:45:20.224Z,95611.03
2022-11-10T00:48:05.902Z,95629.53
2022-11-10T00:50:52.591Z,95592.66
2022-11-10T00:53:38.240Z,95630.34
2022-11-10T00:56:24.420Z,95643.78
2022-11-10T00:59:09.893Z,95631.38
2022-11-10T01:01:55.668Z,95634.84
2022-11-10T01:04:41.387Z,95612.66
2022-11-10T01:07:26.888Z,95629.59
2022-11-10T01:10:12.523Z,95627.94
2022-11-10T01:12:58.140Z,95628.97
2022-11-10T01:15:44.145Z,95628.84
2022-11-10T01:18:29.709Z,95618.03
2022-11-10T01:21:15.180Z,95632.13
2022-11-10T01:24:01.085Z,95624.41
2022-11-10T01:26:46.228Z,95636.25
2022-11-10T01:29:31.693Z,95628.47
2022-11-10T01:32:17.160Z,95630.31
2022-11-10T01:35:03.050Z,95607.53
2022-11-10T01:37:48.470Z,95626.94
2022-11-10T01:40:34.383Z,95624.31
2022-11-10T01:43:20.294Z,95614.47
2022-11-10T01:46:16.659Z,95630.84
2022-11-10T01:49:04.214Z,95632.69
2022-11-10T01:52:04.759Z,95627.78
2022-11-10T01:54:50.905Z,95612.94
2022-11-10T01:57:37.093Z,95610.03
2022-11-10T02:00:23.741Z,95634.59
2022-11-10T02:03:25.828Z,95626.81
2022-11-10T02:06:11.983Z,95620.16
2022-11-10T02:09:01.045Z,95632.81
2022-11-10T02:11:47.805Z,95617.13
2022-11-10T02:14:33.287Z,95621.28
2022-11-10T02:17:19.206Z,95630.81
2022-11-10T02:20:10.305Z,95640.03
2022-11-10T02:22:55.579Z,95636.22
2022-11-10T02:25:41.440Z,95639.44
2022-11-10T02:28:27.459Z,95631.97
2022-11-10T02:31:13.120Z,95636.84
2022-11-10T02:33:58.358Z,95633.66
2022-11-10T02:36:43.738Z,95607.22
2022-11-10T02:39:29.478Z,95648.75
2022-11-10T02:42:15.257Z,95637.94
2022-11-10T02:45:01.350Z,95641.66
2022-11-10T02:47:46.925Z,95644.13
2022-11-10T02:50:32.698Z,95639.63
2022-11-10T02:53:19.871Z,95635.38
2022-11-10T02:56:06.409Z,95642.50
2022-11-10T02:58:51.814Z,95628.50
2022-11-10T03:01:37.259Z,95632.97
2022-11-10T03:04:22.660Z,95652.13
2022-11-10T03:07:08.237Z,95644.41
2022-11-10T03:09:53.936Z,95646.47
2022-11-10T03:12:40.298Z,95653.78
2022-11-10T03:15:26.692Z,95655.63
2022-11-10T03:18:12.537Z,95655.06
2022-11-10T03:20:57.993Z,95631.03
2022-11-10T03:23:43.986Z,95654.47
2022-11-10T03:26:29.285Z,95648.22
2022-11-10T03:29:15.155Z,95652.47
2022-11-10T03:32:00.838Z,95636.59
2022-11-10T03:34:46.616Z,95667.84
2022-11-10T03:37:32.290Z,95622.94
2022-11-10T03:40:17.796Z,95617.31
2022-11-10T03:43:03.342Z,95661.53
2022-11-10T03:45:49.146Z,95664.59
2022-11-10T03:48:34.628Z,95641.34
2022-11-10T03:51:20.291Z,95672.59
2022-11-10T03:54:06.162Z,95658.31
2022-11-10T03:56:52.116Z,95664.84
2022-11-10T03:59:37.525Z,95658.13
2022-11-10T04:02:22.987Z,95671.78
2022-11-10T04:05:27.678Z,95669.34
2022-11-10T04:08:34.310Z,95676.75
2022-11-10T04:11:39.704Z,95655.72
2022-11-10T04:14:43.910Z,95667.56
2022-11-10T04:17:31.395Z,95655.75
2022-11-10T04:20:17.279Z,95677.16
2022-11-10T04:23:21.435Z,95623.19
2022-11-10T04:26:28.086Z,95659.50
2022-11-10T04:29:14.477Z,95684.97
2022-11-10T04:32:00.391Z,95678.06
2022-11-10T04:34:45.980Z,95675.25
2022-11-10T04:37:31.485Z,95668.72
2022-11-10T04:40:16.800Z,95675.25
2022-11-10T04:43:02.298Z,95677.09
2022-11-10T04:45:48.038Z,95695.63
2022-11-10T04:48:35.236Z,95690.75
2022-11-10T04:51:23.648Z,95682.75
2022-11-10T04:54:11.312Z,95687.66
2022-11-10T04:56:57.108Z,95673.59
2022-11-10T04:59:42.675Z,95686.44
2022-11-10T05:02:28.135Z,95666.25
2022-11-10T05:05:13.638Z,95686.44
2022-11-10T05:07:59.530Z,95680.97
2022-11-10T05:10:45.185Z,95701.34
2022-11-10T05:13:31.030Z,95696.03
2022-11-10T05:16:17.343Z,95698.69
2022-11-10T05:19:02.775Z,95700.94
2022-11-10T05:21:47.991Z,95697.88
2022-11-10T05:24:33.918Z,95703.59
2022-11-10T05:27:19.566Z,95698.69
2022-11-10T05:30:06.145Z,95714.44
2022-11-10T05:32:51.713Z,95697.91
2022-11-10T05:35:37.860Z,95699.72
2022-11-10T05:38:23.560Z,95706.66
2022-11-10T05:41:08.968Z,95704.41
2022-11-10T05:43:54.783Z,95709.13
2022-11-10T05:46:40.459Z,95714.22
2022-11-10T05:49:27.514Z,95712.59
2022-11-10T05:52:13.452Z,95694.81
2022-11-10T05:54:58.845Z,95705.47
2022-11-10T05:57:46.042Z,95724.59
2022-11-10T06:00:33.631Z,95727.44
2022-11-10T06:03:19.912Z,95710.88
2022-11-10T06:06:05.948Z,95725.81
2022-11-10T06:08:52.079Z,95739.88
2022-11-10T06:11:37.517Z,95742.91
2022-11-10T06:14:23.009Z,95747.81
2022-11-10T06:17:08.679Z,95739.84
2022-11-10T06:19:54.495Z,95756.75
2022-11-10T06:22:41.090Z,95760.41
2022-11-10T06:25:28.852Z,95740.19
2022-11-10T06:28:15.015Z,95759.97
2022-11-10T06:31:00.698Z,95753.84
2022-11-10T06:33:46.054Z,95750.38
2022-11-10T06:36:32.465Z,95767.91
2022-11-10T06:39:18.051Z,95754.88
2022-11-10T06:42:03.905Z,95769.72
2022-11-10T06:44:49.180Z,95785.84
2022-11-10T06:47:34.827Z,95780.53
2022-11-10T06:50:20.286Z,95787.44
2022-11-10T06:53:05.801Z,95788.91
2022-11-10T06:55:51.131Z,95789.22
2022-11-10T06:58:36.716Z,95788.06
2022-11-10T07:01:26.507Z,95781.31
2022-11-10T07:04:19.577Z,95730.50
2022-11-10T07:07:06.360Z,95794.31
2022-11-10T07:09:51.810Z,95793.09
2022-11-10T07:12:37.235Z,95751.47
2022-11-10T07:15:23.083Z,95786.75
2022-11-10T07:18:09.019Z,95777.13
2022-11-10T07:20:54.779Z,95777.72
2022-11-10T07:23:40.683Z,95801.59
2022-11-10T07:26:26.683Z,95783.78
2022-11-10T07:29:12.047Z,95785.06
2022-11-10T07:31:57.752Z,95805.25
2022-11-10T07:34:43.194Z,95810.13
2022-11-10T07:37:29.938Z,95791.38
2022-11-10T07:40:15.817Z,95805.59
2022-11-10T07:43:00.974Z,95803.31
2022-11-10T07:45:46.667Z,95805.34
2022-11-10T07:48:32.164Z,95781.84
2022-11-10T07:51:17.659Z,95791.44
2022-11-10T07:54:03.533Z,95798.31
2022-11-10T07:56:49.214Z,95770.63
2022-11-10T07:59:34.848Z,95805.28
2022-11-10T08:02:20.507Z,95804.09
2022-11-10T08:05:06.272Z,95806.47
2022-11-10T08:07:53.435Z,95804.63
2022-11-10T08:10:40.447Z,95797.88
2022-11-10T08:13:26.197Z,95795.59
2022-11-10T08:16:11.876Z,95791.47
2022-11-10T08:18:57.396Z,95784.13
2022-11-10T08:21:42.676Z,95789.47
2022-11-10T08:24:28.453Z,95798.44
2022-11-10T08:27:14.002Z,95803.91
2022-11-10T08:29:59.618Z,95799.34
2022-11-10T08:32:44.706Z,95806.06
2022-11-10T08:35:34.287Z,95804.81
2022-11-10T08:38:24.515Z,95815.00
2022-11-10T08:41:09.945Z,95804.59
2022-11-10T08:43:55.463Z,95806.53
2022-11-10T08:46:44.409Z,95794.09
2022-11-10T08:49:29.995Z,95809.75
2022-11-10T08:52:15.396Z,95795.59
2022-11-10T08:55:00.811Z,95797.13
2022-11-10T08:57:47.403Z,95801.59
2022-11-10T09:00:33.408Z,95813.78
2022-11-10T09:03:19.188Z,95811.00
2022-11-10T09:06:05.235Z,95791.84
2022-11-10T09:08:50.879Z,95806.88
2022-11-10T09:11:36.467Z,95804.59
2022-11-10T09:14:22.568Z,95814.50
2022-11-10T09:17:08.568Z,95804.84
2022-11-10T09:19:53.794Z,95793.38
2022-11-10T09:22:40.157Z,95811.28
2022-11-10T09:25:25.732Z,95796.31
2022-11-10T09:28:13.474Z,95810.28
2022-11-10T09:30:59.738Z,95786.72
2022-11-10T09:33:45.486Z,95791.06
2022-11-10T09:36:31.074Z,95777.69
2022-11-10T09:39:18.485Z,95784.38
2022-11-10T09:42:06.774Z,95773.91
2022-11-10T09:45:00.278Z,95794.97
2022-11-10T09:47:58.127Z,95795.09
2022-11-10T09:50:58.505Z,95795.25
2022-11-10T09:53:50.441Z,95788.28
2022-11-10T09:56:37.756Z,95791.41
2022-11-10T09:59:34.549Z,95776.88
2022-11-10T10:02:30.837Z,95787.94
2022-11-10T10:05:51.824Z,95792.72
2022-11-10T10:08:43.347Z,95786.56
2022-11-10T10:12:03.612Z,95739.00
2022-11-10T10:15:20.785Z,95783.09
2022-11-10T10:18:07.697Z,95787.31
2022-11-10T10:20:59.103Z,95782.53
2022-11-10T10:24:09.513Z,95777.50
2022-11-10T10:26:59.738Z,95783.66
2022-11-10T10:29:49.313Z,95780.28
2022-11-10T10:32:34.877Z,95783.41
2022-11-10T10:35:20.647Z,95764.91
2022-11-10T10:38:16.579Z,95770.25
2022-11-10T10:41:18.286Z,95771.53
2022-11-10T10:44:13.312Z,95761.72
2022-11-10T10:47:00.558Z,95769.81
2022-11-10T10:49:46.213Z,95749.38
2022-11-10T10:52:32.474Z,95757.44
2022-11-10T10:55:18.158Z,95751.28
2022-11-10T10:58:20.330Z,95753.59
2022-11-10T11:01:24.167Z,95747.00
2022-11-10T11:04:36.943Z,95738.28
2022-11-10T11:07:26.077Z,95742.16
2022-11-10T11:10:44.333Z,95742.75
2022-11-10T11:13:30.247Z,95738.31
2022-11-10T11:16:15.541Z,95682.34
2022-11-10T11:19:01.405Z,95723.03
2022-11-10T11:22:11.781Z,95733.69
2022-11-10T11:25:18.863Z,95729.72
2022-11-10T11:28:26.146Z,95723.53
2022-11-10T11:31:27.001Z,95723.72
2022-11-10T11:34:16.914Z,95719.00
2022-11-10T11:37:10.439Z,95722.50
2022-11-10T11:40:21.112Z,95717.13
2022-11-10T11:43:34.828Z,95709.66
2022-11-10T11:46:49.493Z,95707.22
2022-11-10T11:49:56.818Z,95711.13
2022-11-10T11:53:03.282Z,95710.09
2022-11-10T11:56:05.149Z,95712.91
2022-11-10T11:59:09.414Z,95716.31
2022-11-10T12:02:38.457Z,95715.88
2022-11-10T12:05:44.133Z,95711.41
2022-11-10T12:08:39.865Z,95708.72
2022-11-10T12:11:52.852Z,95707.91
2022-11-10T12:14:55.542Z,95699.28
2022-11-10T12:17:51.532Z,95710.91
2022-11-10T12:20:58.554Z,95705.59
2022-11-10T12:24:15.691Z,95716.66
2022-11-10T12:27:12.999Z,95709.66
2022-11-10T12:30:04.352Z,95656.72
2022-11-10T12:32:59.398Z,95693.00
2022-11-10T12:35:46.727Z,95714.09
2022-11-10T12:38:48.770Z,95717.09
2022-11-10T12:41:46.129Z,95709.63
2022-11-10T12:44:35.154Z,95713.44
2022-11-10T12:47:25.140Z,95705.63
2022-11-10T12:50:17.027Z,95717.22
2022-11-10T12:53:11.258Z,95704.31
2022-11-10T12:56:02.967Z,95714.53
2022-11-10T12:58:48.462Z,95693.59
2022-11-10T13:01:34.250Z,95701.63
2022-11-10T13:04:23.999Z,95699.56
2022-11-10T13:07:13.503Z,95716.84
2022-11-10T13:10:25.646Z,95722.72
2022-11-10T13:13:17.248Z,95702.19
2022-11-10T13:16:03.130Z,95727.59
2022-11-10T13:18:53.673Z,95717.00
2022-11-10T13:22:02.899Z,95715.13
2022-11-10T13:24:48.244Z,95700.81
2022-11-10T13:27:42.778Z,95720.78
2022-11-10T13:30:45.452Z,95719.56
2022-11-10T13:33:38.156Z,95717.69
2022-11-10T13:36:37.392Z,95675.84
2022-11-10T13:39:26.526Z,95723.72
2022-11-10T13:42:12.133Z,95726.34
2022-11-10T13:45:37.041Z,95717.44
2022-11-10T13:48:31.572Z,95730.09
2022-11-10T13:51:37.742Z,95731.16
2022-11-10T13:54:29.285Z,95729.03
2022-11-10T13:57:21.721Z,95729.59
2022-11-10T14:00:19.624Z,95732.53
2022-11-10T14:03:07.194Z,95722.00
2022-11-10T14:06:03.473Z,95729.19
2022-11-10T14:09:10.147Z,95734.28
2022-11-10T14:12:17.691Z,95730.44
2022-11-10T14:15:12.704Z,95730.66
2022-11-10T14:17:58.930Z,95728.16
2022-11-10T14:20:46.667Z,95726.75
2022-11-10T14:23:38.359Z,95716.72
2022-11-10T14:26:37.961Z,95738.63
2022-11-10T14:29:41.409Z,95737.00
2022-11-10T14:32:27.701Z,95741.81
2022-11-10T14:35:26.558Z,95741.28
2022-11-10T14:38:24.669Z,95739.56
2022-11-10T14:41:18.717Z,95747.16
2022-11-10T14:44:07.173Z,95740.63
2022-11-10T14:46:54.834Z,95719.78
2022-11-10T14:49:40.546Z,95741.91
2022-11-10T14:52:26.336Z,95733.19
2022-11-10T14:55:22.004Z,95747.75
2022-11-10T14:58:10.753Z,95753.03
2022-11-10T15:00:57.069Z,95754.28
2022-11-10T15:03:43.084Z,95750.72
2022-11-10T15:06:30.081Z,95755.25
2022-11-10T15:09:29.411Z,95755.47
2022-11-10T15:12:17.852Z,95772.03
2022-11-10T15:15:18.965Z,95776.69
2022-11-10T15:18:04.749Z,95773.03
2022-11-10T15:21:03.125Z,95786.44
2022-11-10T15:23:57.413Z,95789.03
2022-11-10T15:26:43.589Z,95759.16
2022-11-10T15:29:30.425Z,95794.25
2022-11-10T15:32:20.413Z,95766.72
2022-11-10T15:35:29.449Z,95799.09
2022-11-10T15:38:20.546Z,95801.69
2022-11-10T15:41:12.862Z,95792.06
2022-11-10T15:44:20.313Z,95798.63
2022-11-10T15:47:06.803Z,95792.41
2022-11-10T15:49:52.385Z,95795.09
2022-11-10T15:52:38.740Z,95818.00
2022-11-10T15:55:24.786Z,95811.41
2022-11-10T15:58:16.982Z,95809.91
2022-11-10T16:01:03.500Z,95807.50
2022-11-10T16:03:49.751Z,95797.66
2022-11-10T16:06:35.364Z,95811.81
2022-11-10T16:09:21.106Z,95820.06
2022-11-10T16:12:13.145Z,95827.78
2022-11-10T16:14:59.847Z,95821.06
2022-11-10T16:17:45.460Z,95833.03
2022-11-10T16:20:30.704Z,95840.94
2022-11-10T16:23:16.709Z,95844.91
2022-11-10T16:26:04.431Z,95823.63
2022-11-10T16:28:50.180Z,95842.25
2022-11-10T16:31:35.284Z,95850.53
2022-11-10T16:34:20.992Z,95843.06
2022-11-10T16:37:06.518Z,95839.94
2022-11-10T16:39:51.744Z,95849.47
2022-11-10T16:42:37.413Z,95849.97
2022-11-10T16:45:30.075Z,95860.56
2022-11-10T16:48:18.587Z,95861.59
2022-11-10T16:51:04.413Z,95818.09
2022-11-10T16:53:52.921Z,95853.81
2022-11-10T16:56:38.170Z,95857.88
2022-11-10T16:59:24.087Z,95850.56
2022-11-10T17:02:35.793Z,95860.56
2022-11-10T17:05:21.885Z,95885.31
2022-11-10T17:08:16.095Z,95886.81
2022-11-10T17:11:02.134Z,95894.28
2022-11-10T17:13:47.772Z,95893.34
2022-11-10T17:16:38.667Z,95889.25
2022-11-10T17:19:26.649Z,95901.59
2022-11-10T17:22:16.769Z,95882.84
2022-11-10T17:25:03.134Z,95895.03
2022-11-10T17:27:48.777Z,95896.88
2022-11-10T17:30:36.402Z,95882.69
2022-11-10T17:33:22.668Z,95884.09
2022-11-10T17:36:14.462Z,95886.63
2022-11-10T17:39:00.193Z,95892.22
2022-11-10T17:41:45.910Z,95876.84
2022-11-10T17:44:31.445Z,95898.84
2022-11-10T17:47:17.029Z,95866.22
2022-11-10T17:50:02.419Z,95900.09
2022-11-10T17:52:49.125Z,95879.00
2022-11-10T17:55:36.890Z,95886.78
2022-11-10T17:58:22.935Z,95901.69
2022-11-10T18:01:17.681Z,95914.91
2022-11-10T18:04:03.619Z,95905.38
2022-11-10T18:06:49.647Z,95918.03
2022-11-10T18:09:35.138Z,95927.31
2022-11-10T18:12:24.052Z,95864.22
2022-11-10T18:15:15.530Z,95925.94
2022-11-10T18:18:01.291Z,95925.13
2022-11-10T18:20:47.587Z,95925.63
2022-11-10T18:23:33.713Z,95928.91
2022-11-10T18:26:19.562Z,95930.16
2022-11-10T18:29:05.134Z,95946.66
2022-11-10T18:31:50.717Z,95947.91
2022-11-10T18:34:36.203Z,95935.31
2022-11-10T18:37:22.257Z,95933.16
2022-11-10T18:40:08.112Z,95887.97
2022-11-10T18:43:05.954Z,95957.50
2022-11-10T18:45:53.981Z,95959.59
2022-11-10T18:48:40.759Z,95952.53
2022-11-10T18:51:26.557Z,95955.94
2022-11-10T18:54:13.096Z,95956.16
2022-11-10T18:56:58.957Z,95956.59
2022-11-10T18:59:45.491Z,95949.06
2022-11-10T19:02:32.245Z,95944.47
2022-11-10T19:05:17.662Z,95954.84
2022-11-10T19:08:03.753Z,95969.22
2022-11-10T19:10:49.269Z,95918.94
2022-11-10T19:13:35.293Z,95980.63
2022-11-10T19:16:21.522Z,95973.66
2022-11-10T19:19:07.372Z,95983.69
2022-11-10T19:21:52.735Z,95950.66
2022-11-10T19:25:00.935Z,95979.38
2022-11-10T19:27:59.379Z,95977.59
2022-11-10T19:30:57.725Z,95998.28
2022-11-10T19:34:46.044Z,95998.13
2022-11-10T19:37:35.015Z,96000.19
2022-11-10T19:40:21.546Z,95997.19
2022-11-10T19:43:07.393Z,95977.63
2022-11-10T19:45:53.195Z,96000.72
2022-11-10T19:48:38.979Z,95994.63
2022-11-10T19:51:25.637Z,95991.16
2022-11-10T19:54:13.626Z,95997.88
2022-11-10T19:56:59.421Z,96012.50
2022-11-10T19:59:44.825Z,96005.13
2022-11-10T20:02:30.791Z,95997.38
2022-11-10T20:05:17.560Z,96006.66
2022-11-10T20:08:12.299Z,96008.31
2022-11-10T20:11:08.400Z,96020.63
2022-11-10T20:13:57.856Z,96018.16
2022-11-10T20:16:43.346Z,96004.66
2022-11-10T20:19:28.766Z,96009.97
2022-11-10T20:22:14.717Z,96013.47
2022-11-10T20:25:00.685Z,95996.28
2022-11-10T20:27:46.473Z,96019.19
2022-11-10T20:30:37.810Z,96021.06
2022-11-10T20:33:24.735Z,96003.91
2022-11-10T20:36:18.902Z,96021.06
2022-11-10T20:39:07.403Z,96024.59
2022-11-10T20:41:52.941Z,96042.59
2022-11-10T20:44:38.543Z,96038.75
2022-11-10T20:47:25.000Z,96025.34
2022-11-10T20:50:14.937Z,96041.88
2022-11-10T20:53:02.580Z,96042.69
2022-11-10T20:55:56.205Z,96043.78
2022-11-10T20:58:42.027Z,96048.03
2022-11-10T21:01:27.806Z,96049.28
2022-11-10T21:04:13.435Z,96060.34
2022-11-10T21:06:59.417Z,96050.75
2022-11-10T21:09:44.842Z,96056.25
2022-11-10T21:12:49.159Z,96052.81
2022-11-10T21:15:39.390Z,96071.44
2022-11-10T21:18:31.337Z,96065.53
2022-11-10T21:21:22.783Z,96074.56
2022-11-10T21:24:09.413Z,96072.91
2022-11-10T21:26:58.365Z,96073.13
2022-11-10T21:29:43.574Z,96071.69
2022-11-10T21:32:29.942Z,96084.41
2022-11-10T21:35:16.528Z,96080.31
2022-11-10T21:38:02.242Z,96080.72
2022-11-10T21:40:48.026Z,96083.00
2022-11-10T21:43:33.786Z,96077.50
2022-11-10T21:46:19.768Z,96073.44
2022-11-10T21:49:07.813Z,96093.31
2022-11-10T21:51:55.204Z,96098.66
2022-11-10T21:54:43.613Z,96079.22
2022-11-10T21:57:29.823Z,96103.78
2022-11-10T22:00:15.881Z,96093.78
2022-11-10T22:03:03.781Z,96109.53
2022-11-10T22:05:49.412Z,96099.28
2022-11-10T22:08:36.246Z,96085.19
2022-11-10T22:11:40.638Z,96108.34
2022-11-10T22:14:44.779Z,96085.44
2022-11-10T22:17:49.504Z,96098.09
2022-11-10T22:20:35.178Z,96107.94
2022-11-10T22:23:40.486Z,96107.94
2022-11-10T22:26:26.097Z,96109.59
2022-11-10T22:29:12.239Z,96097.34
2022-11-10T22:31:58.122Z,96105.13
2022-11-10T22:34:43.861Z,96038.28
2022-11-10T22:37:33.144Z,96106.56
2022-11-10T22:40:36.824Z,96106.16
2022-11-10T22:43:40.867Z,96118.25
2022-11-10T22:46:26.375Z,96108.41
2022-11-10T22:49:14.403Z,96107.44
2022-11-10T22:52:02.186Z,96106.00
2022-11-10T22:54:48.152Z,96116.25
2022-11-10T22:57:33.649Z,96100.09
2022-11-10T23:00:19.272Z,96119.13
2022-11-10T23:03:04.669Z,96120.56
2022-11-10T23:05:56.296Z,96119.94
2022-11-10T23:08:43.147Z,96127.53
2022-11-10T23:11:30.410Z,96127.72
2022-11-10T23:14:16.092Z,96120.19
2022-11-10T23:17:01.359Z,96124.50
2022-11-10T23:19:46.938Z,96125.72
2022-11-10T23:22:32.480Z,96118.38
2022-11-10T23:25:18.037Z,96136.56
2022-11-10T23:28:03.997Z,96128.81
2022-11-10T23:30:49.317Z,96134.75
2022-11-10T23:33:36.115Z,96148.06
2022-11-10T23:36:24.260Z,96139.28
2022-11-10T23:39:09.976Z,96125.75
2022-11-10T23:41:55.660Z,96146.66
2022-11-10T23:44:41.328Z,96146.84
2022-11-10T23:47:26.543Z,96146.66
2022-11-10T23:50:12.432Z,96137.63
2022-11-10T23:52:57.900Z,96130.28
2022-11-10T23:55:43.671Z,96147.06
2022-11-10T23:58:30.179Z,96138.25
